createdAt,value
2018-01-15T00:01:33.079Z,82.15
2018-01-15T00:04:00.473Z,82.30
2018-01-15T00:06:27.862Z,82.12
2018-01-15T00:08:55.270Z,82.25
2018-01-15T00:11:22.672Z,81.91
2018-01-15T00:13:50.073Z,82.14
2018-01-15T00:16:17.481Z,82.03
2018-01-15T00:18:44.878Z,82.08
2018-01-15T00:21:12.280Z,81.85
2018-01-15T00:23:39.762Z,81.68
2018-01-15T00:26:07.149Z,81.89
2018-01-15T00:28:34.561Z,81.97
2018-01-15T00:31:01.980Z,82.28
2018-01-15T00:33:29.387Z,82.26
2018-01-15T00:35:56.801Z,82.21
2018-01-15T00:38:24.214Z,82.35
2018-01-15T00:40:51.614Z,82.29
2018-01-15T00:43:19.127Z,82.17
2018-01-15T00:45:46.518Z,82.03
2018-01-15T00:48:13.938Z,82.08
2018-01-15T00:50:41.339Z,82.22
2018-01-15T00:53:08.741Z,82.39
2018-01-15T00:55:36.148Z,82.11
2018-01-15T00:58:03.564Z,82.02
2018-01-15T01:00:30.958Z,82.07
2018-01-15T01:02:58.368Z,82.14
2018-01-15T01:05:25.769Z,82.16
2018-01-15T01:07:53.186Z,82.04
2018-01-15T01:10:20.591Z,81.96
2018-01-15T01:12:47.985Z,82.16
2018-01-15T01:15:15.384Z,82.03
2018-01-15T01:17:42.793Z,81.86
2018-01-15T01:20:10.195Z,81.95
2018-01-15T01:22:37.597Z,81.66
2018-01-15T01:25:05.008Z,81.87
2018-01-15T01:27:32.410Z,81.75
2018-01-15T01:29:59.815Z,81.75
2018-01-15T01:32:27.243Z,81.61
2018-01-15T01:34:54.651Z,81.46
2018-01-15T01:37:22.155Z,81.24
2018-01-15T01:39:49.558Z,81.14
2018-01-15T01:42:16.954Z,81.06
2018-01-15T01:44:44.359Z,80.86
2018-01-15T01:47:11.763Z,80.78
2018-01-15T01:49:39.193Z,80.48
2018-01-15T01:52:06.927Z,80.42
2018-01-15T01:54:34.363Z,80.53
2018-01-15T01:57:02.297Z,80.60
2018-01-15T01:59:29.789Z,80.60
2018-01-15T02:01:57.179Z,80.47
2018-01-15T02:04:24.586Z,80.42
2018-01-15T02:06:52.010Z,80.31
2018-01-15T02:09:19.503Z,80.10
2018-01-15T02:11:46.921Z,79.73
2018-01-15T02:14:14.328Z,79.63
2018-01-15T02:16:41.798Z,79.88
2018-01-15T02:19:09.204Z,79.71
2018-01-15T02:21:36.606Z,79.74
2018-01-15T02:24:04.023Z,79.79
2018-01-15T02:26:31.506Z,79.64
2018-01-15T02:28:58.942Z,79.42
2018-01-15T02:31:26.334Z,79.17
2018-01-15T02:33:53.765Z,79.60
2018-01-15T02:36:21.164Z,79.77
2018-01-15T02:38:48.575Z,79.83
2018-01-15T02:41:16.009Z,79.86
2018-01-15T02:43:43.403Z,80.01
2018-01-15T02:46:10.790Z,80.12
2018-01-15T02:48:38.208Z,80.12
2018-01-15T02:51:05.650Z,79.62
2018-01-15T02:53:33.107Z,79.40
2018-01-15T02:56:00.514Z,79.73
2018-01-15T02:58:27.929Z,80.04
2018-01-15T03:00:55.330Z,80.35
2018-01-15T03:03:22.737Z,80.21
2018-01-15T03:05:50.200Z,80.43
2018-01-15T03:08:17.553Z,80.05
2018-01-15T03:10:44.953Z,80.10
2018-01-15T03:13:12.378Z,80.18
2018-01-15T03:15:39.779Z,80.34
2018-01-15T03:18:07.183Z,80.38
2018-01-15T03:20:34.579Z,80.62
2018-01-15T03:23:01.988Z,80.57
2018-01-15T03:25:29.386Z,80.37
2018-01-15T03:27:56.791Z,80.57
2018-01-15T03:30:24.212Z,80.71
2018-01-15T03:32:51.614Z,80.76
2018-01-15T03:35:19.022Z,80.76
2018-01-15T03:37:46.474Z,80.53
2018-01-15T03:40:13.878Z,80.18
2018-01-15T03:42:41.324Z,79.88
2018-01-15T03:45:08.737Z,80.45
2018-01-15T03:47:36.239Z,80.60
2018-01-15T03:50:03.634Z,80.80
2018-01-15T03:52:31.031Z,80.93
2018-01-15T03:54:58.459Z,80.92
2018-01-15T03:57:26.871Z,81.03
2018-01-15T03:59:54.266Z,80.84
2018-01-15T04:02:21.674Z,80.86
2018-01-15T04:04:49.078Z,80.50
2018-01-15T04:07:16.482Z,80.59
2018-01-15T04:09:43.884Z,80.48
2018-01-15T04:12:11.329Z,80.35
2018-01-15T04:14:38.734Z,80.24
2018-01-15T04:17:06.142Z,80.27
2018-01-15T04:19:33.557Z,80.10
2018-01-15T04:22:01.020Z,80.12
2018-01-15T04:24:28.500Z,80.20
2018-01-15T04:26:55.889Z,80.08
2018-01-15T04:29:24.117Z,79.94
2018-01-15T04:31:51.511Z,80.10
2018-01-15T04:34:18.935Z,80.12
2018-01-15T04:36:46.358Z,80.19
2018-01-15T04:39:13.766Z,80.13
2018-01-15T04:41:41.168Z,80.15
2018-01-15T04:44:08.566Z,80.20
2018-01-15T04:46:35.971Z,79.96
2018-01-15T04:49:03.441Z,79.71
2018-01-15T04:51:30.842Z,79.77
2018-01-15T04:53:58.462Z,79.79
2018-01-15T04:56:25.895Z,79.89
2018-01-15T04:58:53.293Z,79.86
2018-01-15T05:01:20.677Z,79.55
2018-01-15T05:03:48.081Z,79.54
2018-01-15T05:06:15.504Z,79.33
2018-01-15T05:08:42.899Z,79.75
2018-01-15T05:11:10.318Z,79.77
2018-01-15T05:13:37.726Z,79.89
2018-01-15T05:16:05.144Z,79.79
2018-01-15T05:18:32.531Z,79.71
2018-01-15T05:20:59.939Z,79.71
2018-01-15T05:23:27.357Z,80.00
2018-01-15T05:25:54.753Z,79.97
2018-01-15T05:28:22.151Z,79.89
2018-01-15T05:30:49.561Z,80.05
2018-01-15T05:33:16.966Z,80.00
2018-01-15T05:35:44.386Z,79.89
2018-01-15T05:38:11.783Z,79.72
2018-01-15T05:40:39.202Z,79.76
2018-01-15T05:43:06.590Z,80.24
2018-01-15T05:45:34.026Z,80.16
2018-01-15T05:48:01.450Z,80.39
2018-01-15T05:50:28.861Z,80.29
2018-01-15T05:52:56.261Z,80.35
2018-01-15T05:55:23.729Z,80.32
2018-01-15T05:57:51.280Z,80.38
2018-01-15T06:00:18.700Z,80.00
2018-01-15T06:02:46.114Z,80.04
2018-01-15T06:05:13.531Z,79.76
2018-01-15T06:07:40.938Z,80.16
2018-01-15T06:10:08.342Z,80.04
2018-01-15T06:12:35.744Z,79.75
2018-01-15T06:15:03.147Z,80.02
2018-01-15T06:17:30.562Z,80.00
2018-01-15T06:19:57.950Z,79.79
2018-01-15T06:22:25.371Z,80.29
2018-01-15T06:24:52.932Z,80.16
2018-01-15T06:27:20.279Z,80.28
2018-01-15T06:29:47.694Z,80.39
2018-01-15T06:32:15.090Z,80.35
2018-01-15T06:34:42.491Z,80.31
2018-01-15T06:37:09.907Z,80.28
2018-01-15T06:39:37.304Z,80.20
2018-01-15T06:42:04.693Z,79.88
2018-01-15T06:44:32.098Z,79.57
2018-01-15T06:46:59.782Z,79.62
2018-01-15T06:49:27.193Z,79.57
2018-01-15T06:51:54.610Z,79.67
2018-01-15T06:54:22.034Z,79.83
2018-01-15T06:56:49.454Z,79.68
2018-01-15T06:59:16.846Z,79.99
2018-01-15T07:01:44.246Z,79.61
2018-01-15T07:04:11.647Z,79.54
2018-01-15T07:06:39.061Z,79.72
2018-01-15T07:09:06.434Z,79.75
2018-01-15T07:11:33.834Z,79.32
2018-01-15T07:14:01.235Z,79.36
2018-01-15T07:16:28.636Z,79.09
2018-01-15T07:18:56.030Z,79.06
2018-01-15T07:21:23.434Z,79.08
2018-01-15T07:23:50.830Z,79.22
2018-01-15T07:26:18.255Z,79.10
2018-01-15T07:28:45.638Z,78.99
2018-01-15T07:31:13.057Z,79.16
2018-01-15T07:33:40.485Z,79.04
2018-01-15T07:36:07.867Z,78.59
2018-01-15T07:38:35.275Z,78.47
2018-01-15T07:41:02.696Z,78.53
2018-01-15T07:43:30.083Z,78.40
2018-01-15T07:45:57.479Z,78.67
2018-01-15T07:48:24.875Z,78.58
2018-01-15T07:50:52.274Z,78.41
2018-01-15T07:53:19.670Z,78.34
2018-01-15T07:55:47.062Z,78.42
2018-01-15T07:58:14.453Z,78.13
2018-01-15T08:00:41.859Z,77.90
2018-01-15T08:03:09.277Z,77.57
2018-01-15T08:05:37.178Z,77.78
2018-01-15T08:08:04.571Z,77.66
2018-01-15T08:10:31.991Z,77.93
2018-01-15T08:12:59.383Z,78.02
2018-01-15T08:15:26.787Z,77.65
2018-01-15T08:17:54.166Z,77.79
2018-01-15T08:20:21.562Z,77.93
2018-01-15T08:22:48.969Z,77.84
2018-01-15T08:25:16.378Z,77.79
2018-01-15T08:27:43.778Z,78.10
2018-01-15T08:30:11.198Z,77.50
2018-01-15T08:32:38.596Z,77.96
2018-01-15T08:35:05.987Z,77.58
2018-01-15T08:37:33.383Z,77.60
2018-01-15T08:40:00.803Z,77.53
2018-01-15T08:42:28.178Z,77.39
2018-01-15T08:44:56.367Z,77.13
2018-01-15T08:47:23.756Z,76.65
2018-01-15T08:49:51.172Z,76.49
2018-01-15T08:52:18.566Z,76.56
2018-01-15T08:54:45.953Z,76.23
2018-01-15T08:57:13.354Z,76.04
2018-01-15T08:59:40.756Z,75.90
2018-01-15T09:02:08.166Z,76.19
2018-01-15T09:04:35.570Z,76.01
2018-01-15T09:07:02.966Z,75.67
2018-01-15T09:09:30.503Z,75.21
2018-01-15T09:11:57.910Z,74.96
2018-01-15T09:14:25.308Z,74.77
2018-01-15T09:16:52.731Z,74.68
2018-01-15T09:19:20.126Z,74.37
2018-01-15T09:21:47.526Z,74.67
2018-01-15T09:24:14.932Z,74.11
2018-01-15T09:26:42.333Z,74.95
2018-01-15T09:29:09.732Z,74.58
2018-01-15T09:31:37.130Z,74.52
2018-01-15T09:34:04.562Z,74.41
2018-01-15T09:36:31.966Z,74.62
2018-01-15T09:38:59.378Z,74.39
2018-01-15T09:41:26.810Z,74.60
2018-01-15T09:43:54.235Z,74.55
2018-01-15T09:46:21.654Z,73.95
2018-01-15T09:48:49.060Z,73.38
2018-01-15T09:51:16.458Z,73.51
2018-01-15T09:53:43.847Z,73.73
2018-01-15T09:56:11.261Z,74.07
2018-01-15T09:58:38.653Z,73.27
2018-01-15T10:01:06.150Z,73.62
2018-01-15T10:03:33.548Z,73.44
2018-01-15T10:06:00.953Z,73.57
2018-01-15T10:08:28.346Z,73.00
2018-01-15T10:10:55.755Z,72.96
2018-01-15T10:13:23.178Z,72.75
2018-01-15T10:15:50.610Z,73.07
2018-01-15T10:18:17.990Z,73.36
2018-01-15T10:20:45.513Z,73.18
2018-01-15T10:23:18.821Z,73.41
2018-01-15T10:25:46.225Z,73.08
2018-01-15T10:28:13.632Z,73.57
2018-01-15T10:30:41.062Z,73.49
2018-01-15T10:33:08.457Z,73.36
2018-01-15T10:35:35.853Z,73.27
2018-01-15T10:38:03.249Z,73.27
2018-01-15T10:40:30.653Z,73.08
2018-01-15T10:42:58.030Z,73.01
2018-01-15T10:45:25.459Z,72.75
2018-01-15T10:47:52.872Z,72.92
2018-01-15T10:50:20.266Z,72.95
2018-01-15T10:52:47.670Z,72.57
2018-01-15T10:55:15.121Z,72.66
2018-01-15T10:57:42.488Z,72.31
2018-01-15T11:00:09.895Z,71.97
2018-01-15T11:02:37.289Z,71.98
2018-01-15T11:05:04.703Z,71.88
2018-01-15T11:07:32.109Z,71.91
2018-01-15T11:09:59.505Z,71.95
2018-01-15T11:12:26.902Z,72.06
2018-01-15T11:14:54.298Z,71.50
2018-01-15T11:17:21.703Z,71.49
2018-01-15T11:19:49.119Z,70.99
2018-01-15T11:22:16.539Z,71.36
2018-01-15T11:24:43.947Z,71.79
2018-01-15T11:27:11.342Z,71.97
2018-01-15T11:29:38.738Z,71.77
2018-01-15T11:32:06.164Z,71.04
2018-01-15T11:34:33.547Z,70.94
2018-01-15T11:37:01.073Z,70.50
2018-01-15T11:39:28.479Z,71.29
2018-01-15T11:41:55.873Z,70.04
2018-01-15T11:44:23.284Z,69.89
2018-01-15T11:46:50.675Z,70.19
2018-01-15T11:49:18.082Z,69.67
2018-01-15T11:51:45.494Z,70.61
2018-01-15T11:54:12.902Z,70.44
2018-01-15T11:56:40.296Z,70.92
2018-01-15T11:59:07.698Z,71.26
2018-01-15T12:01:35.122Z,71.23
2018-01-15T12:04:02.517Z,70.99
2018-01-15T12:06:29.938Z,71.19
2018-01-15T12:08:57.345Z,71.16
2018-01-15T12:11:24.737Z,70.52
2018-01-15T12:13:52.154Z,70.33
2018-01-15T12:16:19.576Z,70.96
2018-01-15T12:18:46.956Z,71.13
2018-01-15T12:21:14.342Z,70.82
2018-01-15T12:23:41.737Z,70.78
2018-01-15T12:26:09.171Z,70.31
2018-01-15T12:28:36.562Z,70.57
2018-01-15T12:31:03.954Z,70.85
2018-01-15T12:33:31.406Z,70.91
2018-01-15T12:35:58.790Z,71.20
2018-01-15T12:38:26.192Z,71.27
2018-01-15T12:40:53.603Z,71.54
2018-01-15T12:43:21.016Z,71.78
2018-01-15T12:45:48.417Z,71.71
2018-01-15T12:48:15.803Z,71.87
2018-01-15T12:50:43.194Z,72.14
2018-01-15T12:53:10.622Z,71.74
2018-01-15T12:55:37.995Z,71.67
2018-01-15T12:58:05.418Z,71.58
2018-01-15T13:00:32.842Z,71.79
2018-01-15T13:03:00.242Z,71.80
2018-01-15T13:05:39.652Z,71.74
2018-01-15T13:08:11.683Z,72.02
2018-01-15T13:10:39.070Z,72.02
2018-01-15T13:13:06.469Z,72.22
2018-01-15T13:15:34.286Z,72.37
2018-01-15T13:18:01.679Z,71.92
2018-01-15T13:20:29.067Z,71.84
2018-01-15T13:22:56.478Z,71.92
2018-01-15T13:25:23.885Z,72.14
2018-01-15T13:27:51.312Z,72.37
2018-01-15T13:30:18.689Z,72.55
2018-01-15T13:32:46.119Z,72.64
2018-01-15T13:35:13.565Z,72.49
2018-01-15T13:37:41.005Z,72.52
2018-01-15T13:40:08.398Z,73.03
2018-01-15T13:42:35.794Z,72.66
2018-01-15T13:45:03.187Z,73.17
2018-01-15T13:47:30.602Z,73.46
2018-01-15T13:49:57.972Z,73.84
2018-01-15T13:52:25.388Z,73.85
2018-01-15T13:54:52.765Z,74.49
2018-01-15T13:57:20.181Z,73.74
2018-01-15T13:59:47.574Z,74.19
2018-01-15T14:02:14.970Z,73.93
2018-01-15T14:04:42.367Z,74.12
2018-01-15T14:07:09.770Z,74.42
2018-01-15T14:09:37.183Z,74.33
2018-01-15T14:12:04.570Z,73.95
2018-01-15T14:14:31.996Z,73.86
2018-01-15T14:16:59.414Z,73.62
2018-01-15T14:19:26.882Z,73.62
2018-01-15T14:21:54.309Z,73.67
2018-01-15T14:24:21.718Z,73.28
2018-01-15T14:26:49.126Z,73.69
2018-01-15T14:29:16.535Z,73.67
2018-01-15T14:31:43.924Z,73.75
2018-01-15T14:34:11.352Z,73.84
2018-01-15T14:36:38.714Z,73.71
2018-01-15T14:39:06.221Z,74.27
2018-01-15T14:41:33.500Z,73.78
2018-01-15T14:44:00.962Z,74.18
2018-01-15T14:46:28.291Z,74.29
2018-01-15T14:48:55.691Z,74.57
2018-01-15T14:51:23.095Z,74.28
2018-01-15T14:53:50.490Z,74.25
2018-01-15T14:56:18.027Z,74.38
2018-01-15T14:58:45.412Z,74.60
2018-01-15T15:01:12.802Z,74.74
2018-01-15T15:03:40.218Z,75.05
2018-01-15T15:06:07.616Z,75.18
2018-01-15T15:08:35.030Z,74.75
2018-01-15T15:11:02.414Z,74.74
2018-01-15T15:13:29.819Z,75.13
2018-01-15T15:15:57.207Z,75.00
2018-01-15T15:18:24.623Z,74.86
2018-01-15T15:20:52.034Z,74.85
2018-01-15T15:23:19.434Z,75.01
2018-01-15T15:25:46.826Z,75.32
2018-01-15T15:28:14.336Z,75.58
2018-01-15T15:30:41.750Z,75.41
2018-01-15T15:33:09.169Z,75.45
2018-01-15T15:35:36.566Z,75.26
2018-01-15T15:38:03.970Z,75.42
2018-01-15T15:40:31.395Z,75.18
2018-01-15T15:42:58.785Z,75.12
2018-01-15T15:45:26.179Z,75.16
2018-01-15T15:47:53.600Z,75.06
2018-01-15T15:50:20.993Z,75.19
2018-01-15T15:52:48.539Z,75.37
2018-01-15T15:55:15.983Z,75.70
2018-01-15T15:57:43.394Z,75.41
2018-01-15T16:00:10.800Z,75.49
2018-01-15T16:02:38.189Z,76.00
2018-01-15T16:05:05.597Z,76.15
2018-01-15T16:07:33.066Z,76.56
2018-01-15T16:10:00.520Z,76.37
2018-01-15T16:15:01.885Z,76.68
2018-01-15T16:17:29.274Z,77.13
2018-01-15T16:19:56.687Z,77.05
2018-01-15T16:22:31.646Z,77.46
2018-01-15T16:24:59.033Z,77.18
2018-01-15T16:27:26.419Z,78.07
2018-01-15T16:29:53.842Z,77.95
2018-01-15T16:32:21.214Z,77.89
2018-01-15T16:34:48.634Z,78.87
2018-01-15T16:37:16.029Z,78.37
2018-01-15T16:39:43.423Z,79.17
2018-01-15T16:42:10.815Z,79.15
2018-01-15T16:44:38.222Z,78.82
2018-01-15T16:47:05.612Z,79.14
2018-01-15T16:49:33.009Z,79.29
2018-01-15T16:52:00.390Z,79.43
2018-01-15T16:54:27.799Z,78.80
2018-01-15T16:56:55.235Z,78.59
2018-01-15T16:59:22.642Z,78.85
2018-01-15T17:01:50.067Z,78.53
2018-01-15T17:04:17.453Z,79.14
2018-01-15T17:06:44.961Z,79.15
2018-01-15T17:09:12.333Z,79.62
2018-01-15T17:11:39.781Z,80.00
2018-01-15T17:14:07.182Z,80.27
2018-01-15T17:16:35.570Z,80.60
2018-01-15T17:19:02.966Z,81.11
2018-01-15T17:21:30.356Z,81.06
2018-01-15T17:23:57.760Z,80.79
2018-01-15T17:26:25.146Z,81.62
2018-01-15T17:28:52.558Z,81.51
2018-01-15T17:31:19.963Z,81.56
2018-01-15T17:33:47.429Z,81.29
2018-01-15T17:36:14.809Z,81.46
2018-01-15T17:38:42.202Z,81.18
2018-01-15T17:41:09.598Z,81.49
2018-01-15T17:43:36.982Z,81.67
2018-01-15T17:46:04.418Z,81.74
2018-01-15T17:48:31.834Z,81.88
2018-01-15T17:50:59.248Z,81.69
2018-01-15T17:53:26.640Z,82.16
2018-01-15T17:55:54.043Z,81.94
2018-01-15T17:58:21.458Z,82.54
2018-01-15T18:00:48.853Z,82.39
2018-01-15T18:03:16.252Z,82.53
2018-01-15T18:05:43.642Z,82.21
2018-01-15T18:08:11.035Z,81.96
2018-01-15T18:10:38.428Z,81.96
2018-01-15T18:13:05.850Z,81.89
2018-01-15T18:15:33.244Z,81.68
2018-01-15T18:18:00.854Z,82.40
2018-01-15T18:20:28.243Z,81.71
2018-01-15T18:22:55.627Z,81.56
2018-01-15T18:25:23.026Z,81.59
2018-01-15T18:27:50.411Z,81.56
2018-01-15T18:30:17.811Z,81.10
2018-01-15T18:32:45.222Z,80.75
2018-01-15T18:35:12.639Z,80.87
2018-01-15T18:37:40.046Z,80.62
2018-01-15T18:40:07.442Z,80.64
2018-01-15T18:42:34.826Z,81.20
2018-01-15T18:45:02.228Z,80.87
2018-01-15T18:47:29.623Z,80.92
2018-01-15T18:49:57.027Z,80.54
2018-01-15T18:52:24.424Z,80.37
2018-01-15T18:54:51.854Z,80.33
2018-01-15T18:57:19.228Z,80.63
2018-01-15T18:59:46.626Z,80.36
2018-01-15T19:02:14.019Z,79.98
2018-01-15T19:04:41.427Z,79.85
2018-01-15T19:07:08.809Z,79.68
2018-01-15T19:09:36.197Z,79.83
2018-01-15T19:12:03.585Z,79.47
2018-01-15T19:14:31.019Z,79.12
2018-01-15T19:16:58.487Z,79.04
2018-01-15T19:19:25.882Z,79.10
2018-01-15T19:21:53.267Z,78.84
2018-01-15T19:24:20.685Z,78.84
2018-01-15T19:26:48.084Z,78.51
2018-01-15T19:29:15.474Z,78.55
2018-01-15T19:31:42.854Z,79.62
2018-01-15T19:34:10.258Z,80.12
2018-01-15T19:36:55.477Z,80.94
2018-01-15T19:39:22.874Z,81.27
2018-01-15T19:41:50.271Z,82.17
2018-01-15T19:44:17.660Z,81.83
2018-01-15T19:46:50.779Z,82.39
2018-01-15T19:49:23.682Z,82.65
2018-01-15T19:51:56.766Z,82.82
2018-01-15T19:54:29.826Z,82.50
2018-01-15T19:57:02.926Z,83.06
2018-01-15T19:59:35.989Z,83.04
2018-01-15T20:02:08.906Z,83.37
2018-01-15T20:04:41.975Z,83.31
2018-01-15T20:07:14.998Z,83.64
2018-01-15T20:09:48.091Z,83.76
2018-01-15T20:12:15.471Z,83.50
2018-01-15T20:14:42.885Z,83.84
2018-01-15T20:17:10.269Z,83.88
2018-01-15T20:19:37.645Z,84.24
2018-01-15T20:22:05.036Z,84.82
2018-01-15T20:24:32.414Z,85.23
2018-01-15T20:26:59.810Z,85.92
2018-01-15T20:29:27.199Z,86.44
2018-01-15T20:31:54.602Z,86.71
2018-01-15T20:34:21.991Z,86.96
2018-01-15T20:36:49.414Z,87.19
2018-01-15T20:39:16.793Z,87.60
2018-01-15T20:41:44.191Z,87.98
2018-01-15T20:44:11.583Z,88.39
2018-01-15T20:46:39.102Z,88.53
2018-01-15T20:49:07.315Z,88.72
2018-01-15T20:51:34.709Z,88.98
2018-01-15T20:54:02.089Z,89.11
2018-01-15T20:56:29.478Z,89.08
2018-01-15T20:58:56.867Z,89.20
2018-01-15T21:01:24.258Z,89.55
2018-01-15T21:03:51.649Z,89.31
2018-01-15T21:06:19.071Z,89.40
2018-01-15T21:08:46.459Z,89.81
2018-01-15T21:11:13.879Z,89.70
2018-01-15T21:13:41.248Z,89.67
2018-01-15T21:16:08.664Z,89.71
2018-01-15T21:18:36.041Z,89.92
2018-01-15T21:21:03.474Z,89.98
2018-01-15T21:23:30.867Z,90.13
2018-01-15T21:25:58.261Z,90.13
2018-01-15T21:28:25.642Z,90.10
2018-01-15T21:30:53.039Z,90.06
2018-01-15T21:33:20.466Z,89.94
2018-01-15T21:35:47.823Z,90.15
2018-01-15T21:38:15.232Z,90.27
2018-01-15T21:40:42.624Z,90.04
2018-01-15T21:43:10.031Z,90.04
2018-01-15T21:45:37.440Z,90.09
2018-01-15T21:48:04.826Z,89.79
2018-01-15T21:50:32.318Z,90.13
2018-01-15T21:52:59.707Z,90.08
2018-01-15T21:55:27.114Z,89.68
2018-01-15T21:57:54.500Z,89.60
2018-01-15T22:00:21.877Z,89.52
2018-01-15T22:02:49.286Z,89.56
2018-01-15T22:05:16.673Z,89.80
2018-01-15T22:07:44.063Z,89.58
2018-01-15T22:10:11.449Z,90.08
2018-01-15T22:12:38.851Z,90.04
2018-01-15T22:15:06.239Z,90.28
2018-01-15T22:17:33.664Z,90.04
2018-01-15T22:20:01.022Z,90.14
2018-01-15T22:22:28.429Z,90.17
2018-01-15T22:24:55.825Z,89.91
2018-01-15T22:27:23.219Z,89.52
2018-01-15T22:29:50.603Z,89.06
2018-01-15T22:32:17.986Z,89.16
2018-01-15T22:34:45.370Z,89.11
2018-01-15T22:37:12.838Z,89.05
2018-01-15T22:39:40.221Z,89.41
2018-01-15T22:42:07.604Z,89.24
2018-01-15T22:44:34.978Z,89.21
2018-01-15T22:47:02.374Z,88.66
2018-01-15T22:49:29.910Z,88.52
2018-01-15T22:51:57.535Z,88.85
2018-01-15T22:54:25.073Z,88.72
2018-01-15T22:56:52.455Z,89.10
2018-01-15T22:59:20.830Z,89.11
2018-01-15T23:01:48.214Z,89.10
2018-01-15T23:04:15.604Z,89.04
2018-01-15T23:06:42.991Z,89.28
2018-01-15T23:09:10.395Z,89.17
2018-01-15T23:11:37.783Z,88.62
2018-01-15T23:14:05.215Z,88.86
2018-01-15T23:16:32.590Z,89.03
2018-01-15T23:19:00.007Z,89.04
2018-01-15T23:21:27.410Z,89.28
2018-01-15T23:23:54.857Z,88.99
2018-01-15T23:26:22.267Z,89.15
2018-01-15T23:28:49.651Z,89.22
2018-01-15T23:31:17.087Z,89.23
2018-01-15T23:33:44.466Z,89.24
2018-01-15T23:36:11.923Z,89.32
2018-01-15T23:38:39.309Z,89.25
2018-01-15T23:41:06.692Z,89.02
2018-01-15T23:43:34.102Z,88.89
2018-01-15T23:46:01.483Z,89.17
2018-01-15T23:48:28.895Z,89.21
2018-01-15T23:50:56.260Z,88.98
2018-01-15T23:53:23.646Z,89.03
2018-01-15T23:55:51.021Z,89.02
2018-01-15T23:58:18.426Z,89.25
